LNI369 WALL-WARR
Flight info
| Callsign | LNI369 |
|---|---|
| Flight time | N/A |
| Altitude | 36000 |
| Route | JIDAR T28 KOLTA |
| Aircraft | B738/M-SDE2E3FGHIRWXY/LB1 |
Departure
| Time | 2026-04-17 05:34 |
|---|---|
| Airport | Sultan Aji Muhammad Sulaiman Sepinggan International Airport (WALL) |
Arrival
| Time | N/A |
|---|---|
| Airport | Juanda International Airport (WARR) |
| Time | Latitude | Longitude | Altitude | Speed | Heading |
|---|---|---|---|---|---|
| 2026-04-17 05:10 | -1.26315 | 116.89850 | 20 ft | 0 kts | 335° |
| 2026-04-17 05:25 | -1.26333 | 116.89858 | 20 ft | 4 kts | 335° |
| 2026-04-17 05:25 | -1.26356 | 116.89868 | 20 ft | 4 kts | 332° |
| 2026-04-17 05:25 | -1.26373 | 116.89884 | 20 ft | 4 kts | 278° |
| 2026-04-17 05:25 | -1.26370 | 116.89907 | 20 ft | 2 kts | 248° |
| 2026-04-17 05:26 | -1.26367 | 116.89913 | 20 ft | 0 kts | 248° |
| 2026-04-17 05:28 | -1.26374 | 116.89897 | 20 ft | 8 kts | 248° |
| 2026-04-17 05:28 | -1.26397 | 116.89841 | 20 ft | 9 kts | 248° |
| 2026-04-17 05:29 | -1.26423 | 116.89785 | 21 ft | 9 kts | 232° |
| 2026-04-17 05:29 | -1.26479 | 116.89779 | 21 ft | 9 kts | 160° |
| 2026-04-17 05:29 | -1.26525 | 116.89758 | 21 ft | 9 kts | 248° |
| 2026-04-17 05:29 | -1.26554 | 116.89681 | 20 ft | 17 kts | 248° |
| 2026-04-17 05:30 | -1.26603 | 116.89567 | 20 ft | 18 kts | 247° |
| 2026-04-17 05:30 | -1.26654 | 116.89446 | 22 ft | 21 kts | 247° |
| 2026-04-17 05:30 | -1.26715 | 116.89304 | 20 ft | 22 kts | 246° |
| 2026-04-17 05:30 | -1.26774 | 116.89164 | 20 ft | 22 kts | 247° |
| 2026-04-17 05:31 | -1.26831 | 116.89027 | 20 ft | 21 kts | 247° |
| 2026-04-17 05:31 | -1.26888 | 116.88895 | 20 ft | 20 kts | 247° |
| 2026-04-17 05:31 | -1.26943 | 116.88767 | 20 ft | 20 kts | 246° |
| 2026-04-17 05:31 | -1.26994 | 116.88643 | 21 ft | 19 kts | 248° |
| 2026-04-17 05:32 | -1.27027 | 116.88562 | 20 ft | 19 kts | 248° |
| 2026-04-17 05:32 | -1.27077 | 116.88445 | 20 ft | 18 kts | 246° |
| 2026-04-17 05:32 | -1.27142 | 116.88368 | 20 ft | 17 kts | 195° |
| 2026-04-17 05:33 | -1.27233 | 116.88402 | 21 ft | 16 kts | 134° |
| 2026-04-17 05:33 | -1.27237 | 116.88504 | 21 ft | 16 kts | 68° |
| 2026-04-17 05:33 | -1.27142 | 116.88733 | 19 ft | 73 kts | 67° |
| 2026-04-17 05:33 | -1.26838 | 116.89452 | 21 ft | 149 kts | 68° |
| 2026-04-17 05:34 | -1.26407 | 116.90558 | 440 ft | 178 kts | 70° |
| 2026-04-17 05:34 | -1.25957 | 116.91666 | 1622 ft | 173 kts | 67° |
| 2026-04-17 05:34 | -1.25439 | 116.92806 | 2465 ft | 191 kts | 65° |
| 2026-04-17 05:34 | -1.24846 | 116.94093 | 3086 ft | 214 kts | 66° |
| 2026-04-17 05:35 | -1.24244 | 116.95493 | 3764 ft | 225 kts | 68° |
| 2026-04-17 05:35 | -1.23901 | 116.97084 | 4300 ft | 246 kts | 94° |
| 2026-04-17 05:35 | -1.24452 | 116.98731 | 4723 ft | 259 kts | 125° |
| 2026-04-17 05:35 | -1.25875 | 116.99813 | 5537 ft | 261 kts | 159° |
| 2026-04-17 05:36 | -1.27622 | 117.00396 | 6437 ft | 270 kts | 162° |
| 2026-04-17 05:36 | -1.29350 | 117.00986 | 7640 ft | 262 kts | 160° |
| 2026-04-17 05:36 | -1.31065 | 117.01619 | 8645 ft | 264 kts | 159° |
| 2026-04-17 05:36 | -1.32815 | 117.02300 | 9329 ft | 280 kts | 158° |
| 2026-04-17 05:37 | -1.34689 | 117.03056 | 9833 ft | 298 kts | 157° |
| 2026-04-17 05:37 | -1.36635 | 117.03863 | 10614 ft | 307 kts | 157° |
| 2026-04-17 05:37 | -1.38618 | 117.04697 | 11493 ft | 311 kts | 158° |
| 2026-04-17 05:37 | -1.40622 | 117.05541 | 12344 ft | 315 kts | 159° |
| 2026-04-17 05:38 | -1.42708 | 117.06175 | 13225 ft | 312 kts | 178° |
| 2026-04-17 05:38 | -1.44822 | 117.05913 | 14139 ft | 307 kts | 202° |
| 2026-04-17 05:38 | -1.46646 | 117.04821 | 14910 ft | 308 kts | 225° |
| 2026-04-17 05:38 | -1.47940 | 117.03117 | 15640 ft | 311 kts | 244° |
| 2026-04-17 05:39 | -1.48827 | 117.01132 | 16425 ft | 315 kts | 248° |
| 2026-04-17 05:39 | -1.49666 | 116.99092 | 17162 ft | 320 kts | 249° |
| 2026-04-17 05:39 | -1.50511 | 116.97019 | 17879 ft | 324 kts | 248° |
| 2026-04-17 05:39 | -1.51380 | 116.94917 | 18597 ft | 329 kts | 248° |
| 2026-04-17 05:40 | -1.52267 | 116.92800 | 19310 ft | 332 kts | 248° |
| 2026-04-17 05:40 | -1.53172 | 116.90659 | 19989 ft | 337 kts | 248° |
| 2026-04-17 05:40 | -1.54092 | 116.88488 | 20650 ft | 341 kts | 247° |
| 2026-04-17 05:40 | -1.55135 | 116.86349 | 21316 ft | 344 kts | 242° |
| 2026-04-17 05:41 | -1.56320 | 116.84251 | 21912 ft | 349 kts | 240° |
| 2026-04-17 05:41 | -1.57547 | 116.82143 | 22518 ft | 353 kts | 240° |
| 2026-04-17 05:41 | -1.58783 | 116.80008 | 23126 ft | 356 kts | 240° |
| 2026-04-17 05:41 | -1.60016 | 116.77847 | 23673 ft | 360 kts | 240° |
| 2026-04-17 05:42 | -1.61254 | 116.75652 | 24236 ft | 364 kts | 240° |
| 2026-04-17 05:42 | -1.62499 | 116.73435 | 24790 ft | 367 kts | 241° |
| 2026-04-17 05:42 | -1.63790 | 116.71222 | 25298 ft | 371 kts | 237° |
| 2026-04-17 05:42 | -1.65246 | 116.69077 | 25817 ft | 374 kts | 235° |
| 2026-04-17 05:43 | -1.66777 | 116.66955 | 26278 ft | 380 kts | 234° |
| 2026-04-17 05:43 | -1.68347 | 116.64803 | 26342 ft | 396 kts | 234° |
| 2026-04-17 05:43 | -1.69989 | 116.62540 | 26427 ft | 409 kts | 234° |
| 2026-04-17 05:43 | -1.71674 | 116.60196 | 26502 ft | 421 kts | 234° |
| 2026-04-17 05:44 | -1.73397 | 116.57780 | 26573 ft | 432 kts | 234° |
| 2026-04-17 05:44 | -1.75158 | 116.55298 | 26638 ft | 442 kts | 235° |
| 2026-04-17 05:44 | -1.76952 | 116.52765 | 26724 ft | 450 kts | 235° |
| 2026-04-17 05:44 | -1.78766 | 116.50201 | 26975 ft | 453 kts | 235° |
| 2026-04-17 05:45 | -1.80589 | 116.47624 | 27310 ft | 454 kts | 235° |
| 2026-04-17 05:45 | -1.82417 | 116.45042 | 27617 ft | 456 kts | 235° |
| 2026-04-17 05:45 | -1.84255 | 116.42447 | 27874 ft | 458 kts | 235° |
| 2026-04-17 05:45 | -1.86198 | 116.39909 | 28082 ft | 462 kts | 225° |
| 2026-04-17 05:46 | -1.88741 | 116.37953 | 28292 ft | 465 kts | 208° |
| 2026-04-17 05:46 | -1.91729 | 116.36708 | 28577 ft | 466 kts | 199° |
| 2026-04-17 05:46 | -1.94805 | 116.35665 | 28818 ft | 468 kts | 198° |
| 2026-04-17 05:46 | -1.97911 | 116.34646 | 29025 ft | 471 kts | 198° |
| 2026-04-17 05:47 | -2.01030 | 116.33614 | 29242 ft | 473 kts | 199° |
| 2026-04-17 05:47 | -2.04154 | 116.32557 | 29456 ft | 475 kts | 199° |
| 2026-04-17 05:47 | -2.07288 | 116.31476 | 29656 ft | 477 kts | 199° |
| 2026-04-17 05:47 | -2.10434 | 116.30380 | 29857 ft | 480 kts | 199° |
| 2026-04-17 05:48 | -2.13588 | 116.29275 | 30049 ft | 482 kts | 199° |
| 2026-04-17 05:48 | -2.16760 | 116.28166 | 30240 ft | 484 kts | 199° |
| 2026-04-17 05:48 | -2.19938 | 116.27058 | 30468 ft | 484 kts | 199° |
| 2026-04-17 05:48 | -2.23065 | 116.25799 | 30676 ft | 485 kts | 210° |
| 2026-04-17 05:49 | -2.25731 | 116.23742 | 30862 ft | 486 kts | 226° |
| 2026-04-17 05:49 | -2.27780 | 116.21064 | 31066 ft | 487 kts | 241° |
| 2026-04-17 05:49 | -2.29230 | 116.18002 | 31243 ft | 489 kts | 246° |
| 2026-04-17 05:49 | -2.30565 | 116.14868 | 31409 ft | 490 kts | 247° |
| 2026-04-17 05:50 | -2.31890 | 116.11728 | 31547 ft | 492 kts | 246° |
| 2026-04-17 05:50 | -2.33244 | 116.08579 | 31666 ft | 493 kts | 246° |
| 2026-04-17 05:50 | -2.34627 | 116.05440 | 31802 ft | 494 kts | 245° |
| 2026-04-17 05:50 | -2.36028 | 116.02303 | 31909 ft | 494 kts | 245° |
| 2026-04-17 05:51 | -2.38991 | 115.96093 | 32059 ft | 496 kts | 234° |
| 2026-04-17 05:51 | -2.41270 | 115.93521 | 32148 ft | 495 kts | 219° |
| 2026-04-17 05:51 | -2.44085 | 115.91645 | 32276 ft | 494 kts | 207° |
| 2026-04-17 05:52 | -2.47123 | 115.90054 | 32413 ft | 493 kts | 206° |
| 2026-04-17 05:52 | -2.50190 | 115.88509 | 32490 ft | 493 kts | 205° |
| 2026-04-17 05:52 | -2.56329 | 115.85425 | 32673 ft | 490 kts | 206° |
| 2026-04-17 05:53 | -2.59300 | 115.83908 | 32693 ft | 473 kts | 206° |
| 2026-04-17 05:53 | -2.62218 | 115.82400 | 32754 ft | 473 kts | 206° |
| 2026-04-17 05:53 | -2.65147 | 115.80879 | 32969 ft | 474 kts | 206° |
| 2026-04-17 05:53 | -2.68069 | 115.79353 | 33337 ft | 473 kts | 206° |
| 2026-04-17 05:54 | -2.70972 | 115.77836 | 33756 ft | 470 kts | 206° |
| 2026-04-17 05:54 | -2.73858 | 115.76324 | 34198 ft | 467 kts | 206° |
| 2026-04-17 05:54 | -2.76732 | 115.74821 | 34598 ft | 465 kts | 206° |
| 2026-04-17 05:54 | -2.79590 | 115.73327 | 34910 ft | 464 kts | 206° |
| 2026-04-17 05:55 | -2.82457 | 115.71830 | 35176 ft | 465 kts | 206° |
| 2026-04-17 05:55 | -2.85324 | 115.70333 | 35470 ft | 465 kts | 206° |
| 2026-04-17 05:55 | -2.88185 | 115.68838 | 35791 ft | 464 kts | 206° |
| 2026-04-17 05:55 | -2.91062 | 115.67336 | 35820 ft | 468 kts | 206° |
| 2026-04-17 05:56 | -2.96847 | 115.64315 | 35836 ft | 469 kts | 206° |
| 2026-04-17 05:56 | -3.02582 | 115.61316 | 35826 ft | 462 kts | 206° |
| 2026-04-17 05:57 | -3.08279 | 115.58340 | 35838 ft | 462 kts | 206° |
| 2026-04-17 05:57 | -3.13978 | 115.55363 | 35835 ft | 462 kts | 206° |
| 2026-04-17 05:58 | -3.19681 | 115.52385 | 35836 ft | 462 kts | 206° |
| 2026-04-17 05:59 | -3.28237 | 115.47908 | 35827 ft | 463 kts | 206° |
| 2026-04-17 05:59 | -3.33941 | 115.44927 | 35839 ft | 463 kts | 206° |
| 2026-04-17 06:00 | -3.39656 | 115.41939 | 35831 ft | 464 kts | 206° |
| 2026-04-17 06:00 | -3.45343 | 115.38966 | 35825 ft | 464 kts | 206° |
| 2026-04-17 06:01 | -3.51061 | 115.35974 | 35840 ft | 464 kts | 206° |
| 2026-04-17 06:01 | -3.56795 | 115.32975 | 35831 ft | 466 kts | 206° |
| 2026-04-17 06:02 | -3.62538 | 115.29972 | 35830 ft | 466 kts | 206° |
| 2026-04-17 06:02 | -3.68284 | 115.26966 | 35838 ft | 466 kts | 206° |
| 2026-04-17 06:03 | -3.74034 | 115.23955 | 35825 ft | 467 kts | 206° |
| 2026-04-17 06:03 | -3.79790 | 115.20943 | 35834 ft | 467 kts | 206° |
| 2026-04-17 06:04 | -3.85545 | 115.17932 | 35829 ft | 467 kts | 206° |
| 2026-04-17 06:04 | -3.91299 | 115.14917 | 35832 ft | 467 kts | 206° |